Terminal Aerodrome Forecast
Issued by NWS Albuquerque, NM

Home | Current Version | Previous Version | Text Only | Print | Product List | Glossary On
Versions: 1 2 3 4 5 6 7 8 9 10 11 12 13 14 15
000
FTUS45 KABQ 191123
TAFABQ
TAF
KABQ 191123Z 1912/2012 19010KT P6SM VCSH BKN035 OVC050
      TEMPO 1912/1914 -RA OVC030
     FM191600 20010KT P6SM BKN050
     FM191900 23010G16KT P6SM SCT050 BKN100
     FM192200 26012G20KT P6SM VCSH BKN050 OVC100
     FM200000 26012KT 6SM -SHRA BR BKN035
     FM200300 27008KT P6SM BKN050=

USA.gov is the U.S. government's official web portal to all federal, state and local government web resources and services.